Time;durP1;ratioP1;P1;durP2;ratioP2;P2;SDS_P1;SDS_P2;PMS_P1;PMS_P2;Temp;Humidity;BMP_temperature;BMP_pressure;BME280_temperature;BME280_humidity;BME280_pressure;Samples;Min_cycle;Max_cycle;Signal;HPM_P1;HPM_P2
2022/06/18 00:01:33;;;;;;;;;;;;;;;;;;4957556;28;20361;-54
2022/06/18 00:04:01;;;;;;;;;;;;;;;;;;4955931;28;19918;-54
2022/06/18 00:06:28;;;;;;;;;;;;;;;;;;4956903;28;19922;-54
2022/06/18 00:08:54;;;;;;;;;;;;;;;;;;4958277;28;19922;-54
2022/06/18 00:14:04;;;;;;;;;;;;;;;;;;4945943;28;19930;-55
2022/06/18 00:16:31;;;;;;;;;;;;;;;;;;4957634;28;19929;-56
2022/06/18 00:18:59;;;;;;;;;;;;;;;;;;4955396;28;19917;-54
2022/06/18 00:21:24;;;;;;;;;;;;;;;;;;4958273;28;19922;-55
2022/06/18 00:23:54;;;;;;;;;;;;;;;;;;4957025;28;19925;-54
2022/06/18 00:26:19;;;;;;;;;;;;;;;;;;4936236;28;21483;-55
2022/06/18 00:28:47;;;;;;;;;;;;;;;;;;4958312;28;19925;-56
2022/06/18 00:31:12;;;;;;;;;;;;;;;;;;4943035;28;19996;-55
2022/06/18 00:33:40;;;;;;;;;;;;;;;;;;4959096;28;20273;-55
2022/06/18 00:36:07;;;;;;;;;;;;;;;;;;4954003;28;19918;-55
2022/06/18 00:38:35;;;;;;;;;;;;;;;;;;4957000;28;20187;-55
2022/06/18 00:41:01;;;;;;;;;;;;;;;;;;4920490;28;21760;-56
2022/06/18 00:43:27;;;;;;;;;;;;;;;;;;4958101;28;19933;-55
2022/06/18 00:45:55;;;;;;;;;;;;;;;;;;4957742;28;21810;-56
2022/06/18 00:48:23;;;;;;;;;;;;;;;;;;4953430;28;19924;-56
2022/06/18 00:50:54;;;;;;;;;;;;;;;;;;4957015;28;19926;-56
2022/06/18 00:53:19;;;;;;;;;;;;;;;;;;4956874;28;20718;-56
2022/06/18 00:55:45;;;;;;;;;;;;;;;;;;4939986;28;19945;-56
2022/06/18 00:58:10;;;;;;;;;;;;;;;;;;4955400;28;20063;-56
2022/06/18 01:00:36;;;;;;;;;;;;;;;;;;4958828;28;19918;-57
2022/06/18 01:03:04;;;;;;;;;;;;;;;;;;4938374;28;19930;-57
2022/06/18 01:05:29;;;;;;;;;;;;;;;;;;4961988;28;19929;-56
2022/06/18 01:07:54;;;;;;;;;;;;;;;;;;4943070;28;19932;-56
2022/06/18 01:10:24;;;;;;;;;;;;;;;;;;4963563;28;19968;-57
2022/06/18 01:12:49;;;;;;;;;;;;;;;;;;4962270;28;20835;-57
2022/06/18 01:15:20;;;;;;;;;;;;;;;;;;4945377;28;19933;-56
2022/06/18 01:17:47;;;;;;;;;;;;;;;;;;4960151;28;19921;-56
2022/06/18 01:20:12;;;;;;;;;;;;;;;;;;4962139;28;20503;-55
2022/06/18 01:22:40;;;;;;;;;;;;;;;;;;4961208;28;19922;-55
2022/06/18 01:25:06;;;;;;;;;;;;;;;;;;4940243;28;19968;-55
2022/06/18 01:27:32;;;;;;;;;;;;;;;;;;4962553;28;19995;-56
2022/06/18 01:29:57;;;;;;;;;;;;;;;;;;4944358;28;20773;-56
2022/06/18 01:32:25;;;;;;;;;;;;;;;;;;4944562;28;20016;-56
2022/06/18 01:34:52;;;;;;;;;;;;;;;;;;4958026;28;21303;-56
2022/06/18 01:37:20;;;;;;;;;;;;;;;;;;4961252;28;19928;-55
2022/06/18 01:39:46;;;;;;;;;;;;;;;;;;4960414;28;20020;-56
2022/06/18 01:42:11;;;;;;;;;;;;;;;;;;4941070;28;21855;-56
2022/06/18 01:44:36;;;;;;;;;;;;;;;;;;4922823;28;19929;-54
2022/06/18 01:47:04;;;;;;;;;;;;;;;;;;4960462;28;19922;-56
2022/06/18 01:49:29;;;;;;;;;;;;;;;;;;4956144;28;19956;-55
2022/06/18 01:51:57;;;;;;;;;;;;;;;;;;4927036;28;19922;-55
2022/06/18 01:54:22;;;;;;;;;;;;;;;;;;4924993;28;20325;-56
2022/06/18 01:56:48;;;;;;;;;;;;;;;;;;4958644;28;20004;-56
2022/06/18 01:59:15;;;;;;;;;;;;;;;;;;4959657;28;20891;-56
2022/06/18 02:01:43;;;;;;;;;;;;;;;;;;4960512;28;19933;-56
2022/06/18 02:04:08;;;;;;;;;;;;;;;;;;4944723;28;20652;-56
2022/06/18 02:06:34;;;;;;;;;;;;;;;;;;4958141;28;19922;-56
2022/06/18 02:08:59;;;;;;;;;;;;;;;;;;4961949;28;19979;-56
2022/06/18 02:11:26;;;;;;;;;;;;;;;;;;4946502;28;19969;-56
2022/06/18 02:13:52;;;;;;;;;;;;;;;;;;4956905;28;20318;-56
2022/06/18 02:16:19;;;;;;;;;;;;;;;;;;4922136;28;20377;-56
2022/06/18 02:18:45;;;;;;;;;;;;;;;;;;4960297;28;19947;-56
2022/06/18 02:21:13;;;;;;;;;;;;;;;;;;4958406;28;20436;-55
2022/06/18 02:23:43;;;;;;;;;;;;;;;;;;4959579;28;19922;-56
2022/06/18 02:26:08;;;;;;;;;;;;;;;;;;4958218;28;19976;-56
2022/06/18 02:28:36;;;;;;;;;;;;;;;;;;4942924;28;19926;-56
2022/06/18 02:31:07;;;;;;;;;;;;;;;;;;4927076;28;19984;-56
2022/06/18 02:33:35;;;;;;;;;;;;;;;;;;4940576;28;20281;-56
2022/06/18 02:36:00;;;;;;;;;;;;;;;;;;4941907;28;20468;-56
2022/06/18 02:38:28;;;;;;;;;;;;;;;;;;4937528;28;19917;-56
2022/06/18 02:40:56;;;;;;;;;;;;;;;;;;4942307;28;20005;-55
2022/06/18 02:43:24;;;;;;;;;;;;;;;;;;4960040;28;19922;-56
2022/06/18 02:45:49;;;;;;;;;;;;;;;;;;4961076;28;19926;-56
2022/06/18 02:48:17;;;;;;;;;;;;;;;;;;4960152;28;20275;-56
2022/06/18 02:50:42;;;;;;;;;;;;;;;;;;4954185;28;19933;-56
2022/06/18 02:53:08;;;;;;;;;;;;;;;;;;4959686;28;19929;-56
2022/06/18 02:55:36;;;;;;;;;;;;;;;;;;4957809;28;19951;-56
2022/06/18 02:58:04;;;;;;;;;;;;;;;;;;4957707;28;19921;-56
2022/06/18 03:00:36;;;;;;;;;;;;;;;;;;4959518;28;19917;-56
2022/06/18 03:03:01;;;;;;;;;;;;;;;;;;4954192;28;21120;-56
2022/06/18 03:05:27;;;;;;;;;;;;;;;;;;4959939;28;19944;-56
2022/06/18 03:07:52;;;;;;;;;;;;;;;;;;4959640;28;19917;-56
2022/06/18 03:13:07;;;;;;;;;;;;;;;;;;4961307;28;19996;-56
2022/06/18 03:15:32;;;;;;;;;;;;;;;;;;4958292;28;19932;-56
2022/06/18 03:18:01;;;;;;;;;;;;;;;;;;4959047;28;19964;-56
2022/06/18 03:20:28;;;;;;;;;;;;;;;;;;4957151;28;21773;-56
2022/06/18 03:26:10;;;;;;;;;;;;;;;;;;4960415;28;20103;-56
2022/06/18 03:28:36;;;;;;;;;;;;;;;;;;4957949;28;20842;-56
2022/06/18 03:31:04;;;;;;;;;;;;;;;;;;4959263;28;20543;-56
2022/06/18 03:33:30;;;;;;;;;;;;;;;;;;4944011;28;19932;-56
2022/06/18 03:35:58;;;;;;;;;;;;;;;;;;4961601;28;19925;-56
2022/06/18 03:38:24;;;;;;;;;;;;;;;;;;4959964;28;19925;-56
2022/06/18 03:40:55;;;;;;;;;;;;;;;;;;4956387;28;19933;-55
2022/06/18 03:43:20;;;;;;;;;;;;;;;;;;4955634;28;20038;-55
2022/06/18 03:45:49;;;;;;;;;;;;;;;;;;4956762;28;20013;-56
2022/06/18 03:48:17;;;;;;;;;;;;;;;;;;4955423;28;19922;-56
2022/06/18 03:50:49;;;;;;;;;;;;;;;;;;4944093;28;22001;-56
2022/06/18 03:53:14;;;;;;;;;;;;;;;;;;4939675;28;19922;-56
2022/06/18 03:55:39;;;;;;;;;;;;;;;;;;4941314;28;19933;-56
2022/06/18 03:58:07;;;;;;;;;;;;;;;;;;4921317;28;19928;-56
2022/06/18 04:00:32;;;;;;;;;;;;;;;;;;4925860;28;19922;-56
2022/06/18 04:02:57;;;;;;;;;;;;;;;;;;4943186;28;19970;-56
2022/06/18 04:05:23;;;;;;;;;;;;;;;;;;4925918;28;20591;-56
2022/06/18 04:07:51;;;;;;;;;;;;;;;;;;4928366;28;19966;-57
2022/06/18 04:10:16;;;;;;;;;;;;;;;;;;4941237;28;19922;-56
2022/06/18 04:12:41;;;;;;;;;;;;;;;;;;4941362;28;19922;-56
2022/06/18 04:15:06;;;;;;;;;;;;;;;;;;4937619;28;19970;-56
2022/06/18 04:17:33;;;;;;;;;;;;;;;;;;4908208;28;19969;-56
2022/06/18 04:20:00;;;;;;;;;;;;;;;;;;4922162;28;19955;-56
2022/06/18 04:22:27;;;;;;;;;;;;;;;;;;4944108;28;20943;-56
2022/06/18 04:24:53;;;;;;;;;;;;;;;;;;4943371;28;19921;-56
2022/06/18 04:27:18;;;;;;;;;;;;;;;;;;4906277;28;20343;-56
2022/06/18 04:29:43;;;;;;;;;;;;;;;;;;4945460;28;20073;-56
2022/06/18 04:32:14;;;;;;;;;;;;;;;;;;4926209;28;21815;-56
2022/06/18 04:34:43;;;;;;;;;;;;;;;;;;4941262;28;19926;-56
2022/06/18 04:37:11;;;;;;;;;;;;;;;;;;4943081;28;20008;-56
2022/06/18 04:39:36;;;;;;;;;;;;;;;;;;4940325;28;19973;-56
2022/06/18 04:42:03;;;;;;;;;;;;;;;;;;4924249;28;19933;-56
2022/06/18 04:44:29;;;;;;;;;;;;;;;;;;4940314;28;19921;-57
2022/06/18 04:46:54;;;;;;;;;;;;;;;;;;4940321;28;20441;-56
2022/06/18 04:49:24;;;;;;;;;;;;;;;;;;4945249;28;20437;-57
2022/06/18 04:51:54;;;;;;;;;;;;;;;;;;4959203;28;19925;-56
2022/06/18 04:54:22;;;;;;;;;;;;;;;;;;4957895;28;19926;-56
2022/06/18 04:56:47;;;;;;;;;;;;;;;;;;4945852;28;21870;-56
2022/06/18 04:59:15;;;;;;;;;;;;;;;;;;4949535;28;19921;-56
2022/06/18 05:01:43;;;;;;;;;;;;;;;;;;4960723;28;19922;-56
2022/06/18 05:04:10;;;;;;;;;;;;;;;;;;4962725;28;19929;-56
2022/06/18 05:06:40;;;;;;;;;;;;;;;;;;4959846;28;19918;-56
2022/06/18 05:09:06;;;;;;;;;;;;;;;;;;4941000;28;20530;-56
2022/06/18 05:11:35;;;;;;;;;;;;;;;;;;4963010;28;19922;-57
2022/06/18 05:14:03;;;;;;;;;;;;;;;;;;4942247;28;22083;-56
2022/06/18 05:16:31;;;;;;;;;;;;;;;;;;4961941;28;19922;-57
2022/06/18 05:18:58;;;;;;;;;;;;;;;;;;4927212;28;19922;-56
2022/06/18 05:21:27;;;;;;;;;;;;;;;;;;4945947;28;20084;-56
2022/06/18 05:23:54;;;;;;;;;;;;;;;;;;4961235;28;19922;-57
2022/06/18 05:26:20;;;;;;;;;;;;;;;;;;4963465;28;19957;-57
2022/06/18 05:28:45;;;;;;;;;;;;;;;;;;4947114;28;19924;-57
2022/06/18 05:31:10;;;;;;;;;;;;;;;;;;4957633;28;20364;-58
2022/06/18 05:33:35;;;;;;;;;;;;;;;;;;4964353;28;19926;-57
2022/06/18 05:36:01;;;;;;;;;;;;;;;;;;4947055;28;19925;-56
2022/06/18 05:38:29;;;;;;;;;;;;;;;;;;4959012;28;19925;-57
2022/06/18 05:40:56;;;;;;;;;;;;;;;;;;4942604;28;19921;-57
2022/06/18 05:43:24;;;;;;;;;;;;;;;;;;4956408;28;21850;-58
2022/06/18 05:45:53;;;;;;;;;;;;;;;;;;4938202;28;19917;-58
2022/06/18 05:48:20;;;;;;;;;;;;;;;;;;4961015;28;19993;-57
2022/06/18 05:50:48;;;;;;;;;;;;;;;;;;4959178;28;19929;-57
2022/06/18 05:53:13;;;;;;;;;;;;;;;;;;4953334;28;19976;-57
2022/06/18 05:55:41;;;;;;;;;;;;;;;;;;4938990;28;20497;-58
2022/06/18 05:58:07;;;;;;;;;;;;;;;;;;4958263;28;19922;-57
2022/06/18 06:00:32;;;;;;;;;;;;;;;;;;4960283;28;19929;-58
2022/06/18 06:03:00;;;;;;;;;;;;;;;;;;4960354;28;20003;-58
2022/06/18 06:05:25;;;;;;;;;;;;;;;;;;4944571;28;19931;-58
2022/06/18 06:07:53;;;;;;;;;;;;;;;;;;4943322;28;19922;-58
2022/06/18 06:13:04;;;;;;;;;;;;;;;;;;4958767;28;19921;-57
2022/06/18 06:15:31;;;;;;;;;;;;;;;;;;4942224;28;19932;-58
2022/06/18 06:17:56;;;;;;;;;;;;;;;;;;4944354;28;20859;-58
2022/06/18 06:20:21;;;;;;;;;;;;;;;;;;4961596;28;19926;-58
2022/06/18 06:22:47;;;;;;;;;;;;;;;;;;4949240;28;19933;-58
2022/06/18 06:25:15;;;;;;;;;;;;;;;;;;4937559;28;19926;-59
2022/06/18 06:27:40;;;;;;;;;;;;;;;;;;4958374;28;21844;-58
2022/06/18 06:30:08;;;;;;;;;;;;;;;;;;4962924;28;20852;-58
2022/06/18 06:32:38;;;;;;;;;;;;;;;;;;4961608;28;19932;-58
2022/06/18 06:35:04;;;;;;;;;;;;;;;;;;4943402;28;19930;-58
2022/06/18 06:37:29;;;;;;;;;;;;;;;;;;4924694;28;19984;-59
2022/06/18 06:39:54;;;;;;;;;;;;;;;;;;4961079;28;20912;-58
2022/06/18 06:42:22;;;;;;;;;;;;;;;;;;4962822;28;20428;-59
2022/06/18 06:44:49;;;;;;;;;;;;;;;;;;4963204;28;19993;-58
2022/06/18 06:47:17;;;;;;;;;;;;;;;;;;4965491;28;19918;-58
2022/06/18 06:49:42;;;;;;;;;;;;;;;;;;4963992;28;21954;-58
2022/06/18 06:52:07;;;;;;;;;;;;;;;;;;4960493;28;19945;-56
2022/06/18 06:54:33;;;;;;;;;;;;;;;;;;4949930;28;20409;-58
2022/06/18 06:59:45;;;;;;;;;;;;;;;;;;4959213;28;19957;-58
2022/06/18 07:02:12;;;;;;;;;;;;;;;;;;4960215;28;20300;-58
2022/06/18 07:04:38;;;;;;;;;;;;;;;;;;4960212;28;19956;-58
2022/06/18 07:07:03;;;;;;;;;;;;;;;;;;4957799;28;19997;-60
2022/06/18 07:09:29;;;;;;;;;;;;;;;;;;4966362;28;19953;-60
2022/06/18 07:11:54;;;;;;;;;;;;;;;;;;4966498;28;19973;-60
2022/06/18 07:14:22;;;;;;;;;;;;;;;;;;4966327;28;20341;-59
2022/06/18 07:16:47;;;;;;;;;;;;;;;;;;4966167;28;20393;-60
2022/06/18 07:19:15;;;;;;;;;;;;;;;;;;4965099;28;19922;-59
2022/06/18 07:21:44;;;;;;;;;;;;;;;;;;4964889;28;19924;-59
2022/06/18 07:24:10;;;;;;;;;;;;;;;;;;4965829;28;19918;-59
2022/06/18 07:26:35;;;;;;;;;;;;;;;;;;4967646;28;20342;-60
2022/06/18 07:29:01;;;;;;;;;;;;;;;;;;4949117;28;19926;-59
2022/06/18 07:31:27;;;;;;;;;;;;;;;;;;4965994;28;19921;-60
2022/06/18 07:33:52;;;;;;;;;;;;;;;;;;4965719;28;19918;-59
2022/06/18 07:36:19;;;;;;;;;;;;;;;;;;4934673;28;19930;-60
2022/06/18 07:38:46;;;;;;;;;;;;;;;;;;4947806;28;19918;-60
2022/06/18 07:41:13;;;;;;;;;;;;;;;;;;4949347;28;19926;-60
2022/06/18 07:43:43;;;;;;;;;;;;;;;;;;4943146;28;20297;-61
2022/06/18 07:46:11;;;;;;;;;;;;;;;;;;4947641;28;20555;-60
2022/06/18 07:48:41;;;;;;;;;;;;;;;;;;4965706;28;19918;-60
2022/06/18 07:51:09;;;;;;;;;;;;;;;;;;4956385;28;19934;-60
2022/06/18 07:53:37;;;;;;;;;;;;;;;;;;4961347;28;20557;-59
2022/06/18 07:56:02;;;;;;;;;;;;;;;;;;4965244;28;19976;-60
2022/06/18 07:58:28;;;;;;;;;;;;;;;;;;4963029;28;19972;-60
2022/06/18 08:00:54;;;;;;;;;;;;;;;;;;4965664;28;19921;-59
2022/06/18 08:03:22;;;;;;;;;;;;;;;;;;4966729;28;20373;-61
2022/06/18 08:05:48;;;;;;;;;;;;;;;;;;4962477;28;19941;-60
2022/06/18 08:08:13;;;;;;;;;;;;;;;;;;4964731;28;20824;-62
2022/06/18 08:10:41;;;;;;;;;;;;;;;;;;4962122;28;20051;-60
2022/06/18 08:13:06;;;;;;;;;;;;;;;;;;4962000;28;19922;-60
2022/06/18 08:15:34;;;;;;;;;;;;;;;;;;4960005;28;19926;-60
2022/06/18 08:18:00;;;;;;;;;;;;;;;;;;4963419;28;20874;-60
2022/06/18 08:20:27;;;;;;;;;;;;;;;;;;4965127;28;20511;-60
2022/06/18 08:23:00;;;;;;;;;;;;;;;;;;4964688;28;19918;-60
2022/06/18 08:25:25;;;;;;;;;;;;;;;;;;4966112;28;20927;-60
2022/06/18 08:27:55;;;;;;;;;;;;;;;;;;4964120;28;19918;-60
2022/06/18 08:30:22;;;;;;;;;;;;;;;;;;4948878;28;19921;-61
2022/06/18 08:32:50;;;;;;;;;;;;;;;;;;4958875;28;19924;-59
2022/06/18 08:35:15;;;;;;;;;;;;;;;;;;4961965;28;20080;-61
2022/06/18 08:37:40;;;;;;;;;;;;;;;;;;4963902;28;19953;-60
2022/06/18 08:40:34;;;;;;;;;;;;;;;;;;4955162;28;20392;-61
2022/06/18 08:42:53;;;;;;;;;;;;;;;;;;4963850;28;19926;-60
2022/06/18 08:45:19;;;;;;;;;;;;;;;;;;4963582;28;19926;-60
2022/06/18 08:47:45;;;;;;;;;;;;;;;;;;4963566;28;19956;-61
2022/06/18 08:50:10;;;;;;;;;;;;;;;;;;4959923;28;20662;-60
2022/06/18 08:52:35;;;;;;;;;;;;;;;;;;4962613;28;19922;-59
2022/06/18 08:55:03;;;;;;;;;;;;;;;;;;4962871;28;19934;-60
2022/06/18 08:57:31;;;;;;;;;;;;;;;;;;4945068;28;20005;-59
2022/06/18 08:59:58;;;;;;;;;;;;;;;;;;4941597;28;20000;-59
2022/06/18 09:02:24;;;;;;;;;;;;;;;;;;4965550;28;19933;-59
2022/06/18 09:04:51;;;;;;;;;;;;;;;;;;4963107;28;19922;-60
2022/06/18 09:07:16;;;;;;;;;;;;;;;;;;4959023;28;20495;-60
2022/06/18 09:09:43;;;;;;;;;;;;;;;;;;4964530;28;19965;-60
2022/06/18 09:12:11;;;;;;;;;;;;;;;;;;4962398;28;19918;-60
2022/06/18 09:14:36;;;;;;;;;;;;;;;;;;4963089;28;19929;-60
2022/06/18 09:17:01;;;;;;;;;;;;;;;;;;4963015;28;19921;-61
2022/06/18 09:19:32;;;;;;;;;;;;;;;;;;4963763;28;20508;-59
2022/06/18 09:21:58;;;;;;;;;;;;;;;;;;4945337;28;21241;-60
2022/06/18 09:24:23;;;;;;;;;;;;;;;;;;4965425;28;19925;-60
2022/06/18 09:26:48;;;;;;;;;;;;;;;;;;4967694;28;19928;-61
2022/06/18 09:29:16;;;;;;;;;;;;;;;;;;4965627;28;19922;-60
2022/06/18 09:31:41;;;;;;;;;;;;;;;;;;4961600;28;19925;-59
2022/06/18 09:34:07;;;;;;;;;;;;;;;;;;4968685;28;19957;-60
2022/06/18 09:36:35;;;;;;;;;;;;;;;;;;4957395;28;20477;-60
2022/06/18 09:39:03;;;;;;;;;;;;;;;;;;4966329;28;20371;-60
2022/06/18 09:41:30;;;;;;;;;;;;;;;;;;4964164;28;20056;-60
2022/06/18 09:43:56;;;;;;;;;;;;;;;;;;4960995;28;20887;-60
2022/06/18 09:46:23;;;;;;;;;;;;;;;;;;4954893;28;19918;-60
2022/06/18 09:48:51;;;;;;;;;;;;;;;;;;4967777;28;19973;-61
2022/06/18 09:51:21;;;;;;;;;;;;;;;;;;4968526;28;19926;-60
2022/06/18 09:53:51;;;;;;;;;;;;;;;;;;4946432;28;20040;-61
2022/06/18 09:56:16;;;;;;;;;;;;;;;;;;4936178;28;20056;-60
2022/06/18 09:58:42;;;;;;;;;;;;;;;;;;4943558;28;20400;-60
2022/06/18 10:01:07;;;;;;;;;;;;;;;;;;4949563;28;19926;-60
2022/06/18 10:09:00;;;;;;;;;;;;;;;;;;4964383;28;19922;-61
2022/06/18 10:11:26;;;;;;;;;;;;;;;;;;4949107;28;19926;-61
2022/06/18 10:13:51;;;;;;;;;;;;;;;;;;4941030;28;20005;-60
2022/06/18 10:16:16;;;;;;;;;;;;;;;;;;4968153;28;19933;-60
2022/06/18 10:18:44;;;;;;;;;;;;;;;;;;4928722;28;20646;-61
2022/06/18 10:21:12;;;;;;;;;;;;;;;;;;4944598;28;20653;-61
2022/06/18 10:23:38;;;;;;;;;;;;;;;;;;4967308;28;19922;-61
2022/06/18 10:26:05;;;;;;;;;;;;;;;;;;4966888;28;19928;-60
2022/06/18 10:28:33;;;;;;;;;;;;;;;;;;4964546;28;19922;-60
2022/06/18 10:30:58;;;;;;;;;;;;;;;;;;4966353;28;20056;-60
2022/06/18 10:33:28;;;;;;;;;;;;;;;;;;4967787;28;20199;-60
2022/06/18 10:35:53;;;;;;;;;;;;;;;;;;4966379;28;20524;-58
2022/06/18 10:38:22;;;;;;;;;;;;;;;;;;4966300;28;19921;-60
2022/06/18 10:40:47;;;;;;;;;;;;;;;;;;4967033;28;19917;-60
2022/06/18 10:43:15;;;;;;;;;;;;;;;;;;4948097;28;19929;-60
2022/06/18 10:45:40;;;;;;;;;;;;;;;;;;4947916;28;20365;-60
2022/06/18 10:48:05;;;;;;;;;;;;;;;;;;4965905;28;19928;-60
2022/06/18 10:50:33;;;;;;;;;;;;;;;;;;4956151;28;19925;-60
2022/06/18 10:53:01;;;;;;;;;;;;;;;;;;4966383;28;20017;-60
2022/06/18 10:55:26;;;;;;;;;;;;;;;;;;4965694;28;19926;-60
2022/06/18 10:57:56;;;;;;;;;;;;;;;;;;4948976;28;19918;-60
2022/06/18 11:00:25;;;;;;;;;;;;;;;;;;4960451;28;19925;-60
2022/06/18 11:02:50;;;;;;;;;;;;;;;;;;4965444;28;20001;-60
2022/06/18 11:05:18;;;;;;;;;;;;;;;;;;4967782;28;20860;-59
2022/06/18 11:07:43;;;;;;;;;;;;;;;;;;4962624;28;20036;-60
2022/06/18 11:10:11;;;;;;;;;;;;;;;;;;4966200;28;20329;-60
2022/06/18 11:12:38;;;;;;;;;;;;;;;;;;4965311;28;20016;-60
2022/06/18 11:15:04;;;;;;;;;;;;;;;;;;4960753;28;19936;-61
2022/06/18 11:17:30;;;;;;;;;;;;;;;;;;4967997;28;19918;-61
2022/06/18 11:19:56;;;;;;;;;;;;;;;;;;4960754;28;21380;-60
2022/06/18 11:22:21;;;;;;;;;;;;;;;;;;4967100;28;19926;-60
2022/06/18 11:24:56;;;;;;;;;;;;;;;;;;4966585;28;19918;-60
2022/06/18 11:27:21;;;;;;;;;;;;;;;;;;4964392;28;19972;-61
2022/06/18 11:29:47;;;;;;;;;;;;;;;;;;4967017;28;19926;-60
2022/06/18 11:32:13;;;;;;;;;;;;;;;;;;4962681;28;19976;-61
2022/06/18 11:34:38;;;;;;;;;;;;;;;;;;4964981;28;19930;-61
2022/06/18 11:37:03;;;;;;;;;;;;;;;;;;4952053;28;20395;-60
2022/06/18 11:39:29;;;;;;;;;;;;;;;;;;4965085;28;19922;-60
2022/06/18 11:41:59;;;;;;;;;;;;;;;;;;4968012;28;19925;-60
2022/06/18 11:44:25;;;;;;;;;;;;;;;;;;4959069;28;19918;-61
2022/06/18 11:46:50;;;;;;;;;;;;;;;;;;4967255;28;19929;-60
2022/06/18 11:49:18;;;;;;;;;;;;;;;;;;4965252;28;20506;-59
2022/06/18 11:51:43;;;;;;;;;;;;;;;;;;4933611;28;19975;-59
2022/06/18 11:54:10;;;;;;;;;;;;;;;;;;4946662;28;19956;-59
2022/06/18 11:56:35;;;;;;;;;;;;;;;;;;4965405;28;20065;-60
2022/06/18 11:59:03;;;;;;;;;;;;;;;;;;4941790;28;19921;-59
2022/06/18 12:01:28;;;;;;;;;;;;;;;;;;4947622;28;20013;-59
2022/06/18 12:03:54;;;;;;;;;;;;;;;;;;4965024;28;19922;-60
2022/06/18 12:06:23;;;;;;;;;;;;;;;;;;4965215;28;19926;-61
2022/06/18 12:08:51;;;;;;;;;;;;;;;;;;4948689;28;19922;-60
2022/06/18 12:11:19;;;;;;;;;;;;;;;;;;4942637;28;20012;-61
2022/06/18 12:13:44;;;;;;;;;;;;;;;;;;4965923;28;19932;-61
2022/06/18 12:16:10;;;;;;;;;;;;;;;;;;4965313;28;19965;-61
2022/06/18 12:18:35;;;;;;;;;;;;;;;;;;4945974;28;19973;-61
2022/06/18 12:21:00;;;;;;;;;;;;;;;;;;4965667;28;19929;-61
2022/06/18 12:23:28;;;;;;;;;;;;;;;;;;4942599;28;19918;-60
2022/06/18 12:25:56;;;;;;;;;;;;;;;;;;4965238;28;19918;-61
2022/06/18 12:28:23;;;;;;;;;;;;;;;;;;4965184;28;19932;-61
2022/06/18 12:30:50;;;;;;;;;;;;;;;;;;4964400;28;20044;-61
2022/06/18 12:33:16;;;;;;;;;;;;;;;;;;4966096;28;19948;-61
2022/06/18 12:35:46;;;;;;;;;;;;;;;;;;4944211;28;20884;-61
2022/06/18 12:38:14;;;;;;;;;;;;;;;;;;4945817;28;19925;-61
2022/06/18 12:40:39;;;;;;;;;;;;;;;;;;4964100;28;19925;-60
2022/06/18 12:43:07;;;;;;;;;;;;;;;;;;4964339;28;19922;-61
2022/06/18 12:45:35;;;;;;;;;;;;;;;;;;4945347;28;19928;-60
2022/06/18 12:48:05;;;;;;;;;;;;;;;;;;4934103;28;19957;-59
2022/06/18 12:50:30;;;;;;;;;;;;;;;;;;4963576;28;19926;-59
2022/06/18 12:52:57;;;;;;;;;;;;;;;;;;4964429;28;20035;-59
2022/06/18 12:55:23;;;;;;;;;;;;;;;;;;4963886;28;20026;-59
2022/06/18 12:57:52;;;;;;;;;;;;;;;;;;4968274;28;19925;-60
2022/06/18 13:00:18;;;;;;;;;;;;;;;;;;4949721;28;19934;-60
2022/06/18 13:02:46;;;;;;;;;;;;;;;;;;4967946;28;20012;-59
2022/06/18 13:05:11;;;;;;;;;;;;;;;;;;4968019;28;19926;-60
2022/06/18 13:07:36;;;;;;;;;;;;;;;;;;4948437;28;19980;-61
2022/06/18 13:10:03;;;;;;;;;;;;;;;;;;4967537;28;19925;-60
2022/06/18 13:12:30;;;;;;;;;;;;;;;;;;4969198;28;20020;-60
2022/06/18 13:14:58;;;;;;;;;;;;;;;;;;4968978;28;19922;-60
2022/06/18 13:17:24;;;;;;;;;;;;;;;;;;4968989;28;19973;-60
2022/06/18 13:19:49;;;;;;;;;;;;;;;;;;4969187;28;20398;-60
2022/06/18 13:22:15;;;;;;;;;;;;;;;;;;4947060;28;20587;-61
2022/06/18 13:30:08;;;;;;;;;;;;;;;;;;4950605;28;20013;-59
2022/06/18 13:32:33;;;;;;;;;;;;;;;;;;4967048;28;19926;-59
2022/06/18 13:35:01;;;;;;;;;;;;;;;;;;4949495;28;19932;-59
2022/06/18 13:37:26;;;;;;;;;;;;;;;;;;4941904;28;19940;-59
2022/06/18 13:39:51;;;;;;;;;;;;;;;;;;4966681;28;20828;-59
2022/06/18 13:42:19;;;;;;;;;;;;;;;;;;4950897;28;19961;-60
2022/06/18 13:44:44;;;;;;;;;;;;;;;;;;4951990;28;19933;-59
2022/06/18 13:47:12;;;;;;;;;;;;;;;;;;4968691;28;19922;-59
2022/06/18 13:49:40;;;;;;;;;;;;;;;;;;5246452;23;20572;-58
2022/06/18 13:52:06;;;;;;;;;;;;;;;;;;4989832;28;20205;-61
2022/06/18 13:54:31;;;;;;;;;;;;;;;;;;4990064;28;20466;-59
2022/06/18 13:56:56;;;;;;;;;;;;;;;;;;4989248;28;19929;-59
2022/06/18 13:59:24;;;;;;;;;;;;;;;;;;4990718;28;19917;-60
2022/06/18 14:01:51;;;;;;;;;;;;;;;;;;4989782;28;19921;-57
2022/06/18 14:04:17;;;;;;;;;;;;;;;;;;4989300;28;20123;-59
2022/06/18 14:06:42;;;;;;;;;;;;;;;;;;4991422;28;19944;-59
2022/06/18 14:09:10;;;;;;;;;;;;;;;;;;4990766;28;19921;-58
2022/06/18 14:11:35;;;;;;;;;;;;;;;;;;4987812;28;19924;-61
2022/06/18 14:14:01;;;;;;;;;;;;;;;;;;4989478;28;19971;-60
2022/06/18 14:16:27;;;;;;;;;;;;;;;;;;4988722;28;19975;-59
2022/06/18 14:18:52;;;;;;;;;;;;;;;;;;4991025;28;20623;-59
2022/06/18 14:21:18;;;;;;;;;;;;;;;;;;4990091;28;19922;-60
2022/06/18 14:23:43;;;;;;;;;;;;;;;;;;4990622;28;19922;-61
2022/06/18 14:26:08;;;;;;;;;;;;;;;;;;4991607;28;20016;-58
2022/06/18 14:28:35;;;;;;;;;;;;;;;;;;4988112;28;19917;-60
2022/06/18 14:31:03;;;;;;;;;;;;;;;;;;4988639;28;20008;-61
2022/06/18 14:33:31;;;;;;;;;;;;;;;;;;4991109;28;20031;-60
2022/06/18 14:36:00;;;;;;;;;;;;;;;;;;4988220;28;19933;-60
2022/06/18 14:38:26;;;;;;;;;;;;;;;;;;4989129;28;19921;-60
2022/06/18 14:43:35;;;;;;;;;;;;;;;;;;4990158;28;19991;-60
2022/06/18 14:46:01;;;;;;;;;;;;;;;;;;4989578;28;20484;-59
2022/06/18 14:48:26;;;;;;;;;;;;;;;;;;4988740;28;19921;-59
2022/06/18 14:50:51;;;;;;;;;;;;;;;;;;4971826;28;19937;-59
2022/06/18 14:53:17;;;;;;;;;;;;;;;;;;4970540;28;20828;-60
2022/06/18 14:55:44;;;;;;;;;;;;;;;;;;4969248;28;19926;-59
2022/06/18 14:58:14;;;;;;;;;;;;;;;;;;4969000;28;20036;-59
2022/06/18 15:00:39;;;;;;;;;;;;;;;;;;4971511;28;20008;-60
2022/06/18 15:03:07;;;;;;;;;;;;;;;;;;4967789;28;20886;-60
2022/06/18 15:05:38;;;;;;;;;;;;;;;;;;4968692;28;19962;-59
2022/06/18 15:08:06;;;;;;;;;;;;;;;;;;4968279;28;19933;-60
2022/06/18 15:10:34;;;;;;;;;;;;;;;;;;4967744;28;19918;-59
2022/06/18 15:13:02;;;;;;;;;;;;;;;;;;4962313;28;21864;-60
2022/06/18 15:15:42;;;;;;;;;;;;;;;;;;4969872;28;19925;-60
2022/06/18 15:21:02;;;;;;;;;;;;;;;;;;4968489;28;19922;-60
2022/06/18 15:25:59;;;;;;;;;;;;;;;;;;4969361;28;20543;-59
2022/06/18 15:28:30;;;;;;;;;;;;;;;;;;4969340;28;20416;-58
2022/06/18 15:30:57;;;;;;;;;;;;;;;;;;4968199;28;20354;-60
2022/06/18 15:33:27;;;;;;;;;;;;;;;;;;4962782;28;19921;-59
2022/06/18 15:35:53;;;;;;;;;;;;;;;;;;4953837;28;19933;-59
2022/06/18 15:38:18;;;;;;;;;;;;;;;;;;4967565;28;19922;-58
2022/06/18 15:40:44;;;;;;;;;;;;;;;;;;4962425;28;19925;-58
2022/06/18 15:43:09;;;;;;;;;;;;;;;;;;4966870;28;21859;-58
2022/06/18 15:45:35;;;;;;;;;;;;;;;;;;4967369;28;19922;-57
2022/06/18 15:48:03;;;;;;;;;;;;;;;;;;4967723;28;19949;-60
2022/06/18 15:50:36;;;;;;;;;;;;;;;;;;4966297;28;19925;-59
2022/06/18 15:53:01;;;;;;;;;;;;;;;;;;4967607;28;19921;-59
2022/06/18 15:55:27;;;;;;;;;;;;;;;;;;4968622;28;19922;-60
2022/06/18 15:57:52;;;;;;;;;;;;;;;;;;4979559;28;19921;-60
2022/06/18 16:00:18;;;;;;;;;;;;;;;;;;4969782;28;20875;-60
2022/06/18 16:02:46;;;;;;;;;;;;;;;;;;4954136;28;20554;-60
2022/06/18 16:05:15;;;;;;;;;;;;;;;;;;4965926;28;19965;-59
2022/06/18 16:07:42;;;;;;;;;;;;;;;;;;4967445;28;19929;-60
2022/06/18 16:10:08;;;;;;;;;;;;;;;;;;4968939;28;19929;-60
2022/06/18 16:12:33;;;;;;;;;;;;;;;;;;4967886;28;20647;-59
2022/06/18 16:14:59;;;;;;;;;;;;;;;;;;4968560;28;19941;-59
2022/06/18 16:17:26;;;;;;;;;;;;;;;;;;4965606;28;20468;-59
2022/06/18 16:19:52;;;;;;;;;;;;;;;;;;4967049;28;19918;-59
2022/06/18 16:22:18;;;;;;;;;;;;;;;;;;4967467;28;20370;-60
2022/06/18 16:24:43;;;;;;;;;;;;;;;;;;4965556;28;19922;-59
2022/06/18 16:27:08;;;;;;;;;;;;;;;;;;4968936;28;19941;-58
2022/06/18 16:29:39;;;;;;;;;;;;;;;;;;4965964;28;19922;-59
2022/06/18 16:32:06;;;;;;;;;;;;;;;;;;4968197;28;20025;-58
2022/06/18 16:34:32;;;;;;;;;;;;;;;;;;4953043;28;20595;-60
2022/06/18 16:36:57;;;;;;;;;;;;;;;;;;4965042;28;19921;-60
2022/06/18 16:39:22;;;;;;;;;;;;;;;;;;4967903;28;19928;-60
2022/06/18 16:41:50;;;;;;;;;;;;;;;;;;4968716;28;19921;-59
2022/06/18 16:44:19;;;;;;;;;;;;;;;;;;4968312;28;20660;-60
2022/06/18 16:46:45;;;;;;;;;;;;;;;;;;4964995;28;19918;-59
2022/06/18 16:49:15;;;;;;;;;;;;;;;;;;4965394;28;20954;-58
2022/06/18 16:51:42;;;;;;;;;;;;;;;;;;4966173;28;19921;-59
2022/06/18 16:54:08;;;;;;;;;;;;;;;;;;4966316;28;19976;-59
2022/06/18 16:56:35;;;;;;;;;;;;;;;;;;4968492;28;19969;-59
2022/06/18 16:59:01;;;;;;;;;;;;;;;;;;4968298;28;20017;-59
2022/06/18 17:01:26;;;;;;;;;;;;;;;;;;4968423;28;19922;-59
2022/06/18 17:03:54;;;;;;;;;;;;;;;;;;4966689;28;19926;-59
2022/06/18 17:06:19;;;;;;;;;;;;;;;;;;4966408;28;20033;-59
2022/06/18 17:08:45;;;;;;;;;;;;;;;;;;4966955;28;20068;-59
2022/06/18 17:11:10;;;;;;;;;;;;;;;;;;4964175;28;21990;-59
2022/06/18 17:13:37;;;;;;;;;;;;;;;;;;4941500;28;19922;-59
2022/06/18 17:16:03;;;;;;;;;;;;;;;;;;4957658;28;19933;-59